createdAt,value
2023-02-12T05:02:13.336Z,7.70
2023-02-12T05:04:45.029Z,7.70
2023-02-12T05:07:16.755Z,7.70
2023-02-12T05:09:48.430Z,7.70
2023-02-12T05:12:20.132Z,7.70
2023-02-12T05:14:51.802Z,7.70
2023-02-12T05:17:24.872Z,7.70
2023-02-12T05:19:56.576Z,7.70
2023-02-12T05:22:28.257Z,7.70
2023-02-12T05:24:59.913Z,7.70
2023-02-12T05:27:31.616Z,7.70
2023-02-12T05:30:03.540Z,7.70
2023-02-12T05:32:36.578Z,7.70
2023-02-12T05:35:08.262Z,7.70
2023-02-12T05:37:40.013Z,7.60
2023-02-12T05:40:12.568Z,7.70
2023-02-12T05:42:44.327Z,7.70
2023-02-12T05:45:16.066Z,7.70
2023-02-12T05:47:49.117Z,7.70
2023-02-12T05:50:20.945Z,7.70
2023-02-12T05:52:52.614Z,7.70
2023-02-12T05:55:24.283Z,7.70
2023-02-12T05:57:55.956Z,7.70
2023-02-12T06:00:27.630Z,7.70
2023-02-12T06:03:00.666Z,7.70
2023-02-12T06:05:32.310Z,7.70
2023-02-12T06:08:04.393Z,7.70
2023-02-12T06:10:37.188Z,7.70
2023-02-12T06:13:08.899Z,7.70
2023-02-12T06:15:40.571Z,7.70
2023-02-12T06:18:13.597Z,7.70
2023-02-12T06:20:45.264Z,7.70
2023-02-12T06:23:16.956Z,7.70
2023-02-12T06:25:48.661Z,7.70
2023-02-12T06:28:20.343Z,7.70
2023-02-12T06:30:52.140Z,7.70
2023-02-12T06:33:25.229Z,7.70
2023-02-12T06:35:57.343Z,7.70
2023-02-12T06:38:29.272Z,7.70
2023-02-12T06:41:01.753Z,7.70
2023-02-12T06:43:33.419Z,7.70
2023-02-12T06:46:05.269Z,7.70
2023-02-12T06:48:38.282Z,7.70
2023-02-12T06:51:10.855Z,7.70
2023-02-12T06:53:42.618Z,7.70
2023-02-12T06:56:14.310Z,7.70
2023-02-12T06:58:46.966Z,7.70
2023-02-12T07:01:21.646Z,7.70
2023-02-12T07:03:55.500Z,7.70
2023-02-12T07:06:27.322Z,7.70
2023-02-12T07:08:58.973Z,7.70
2023-02-12T07:11:31.655Z,7.70
2023-02-12T07:14:03.310Z,7.70
2023-02-12T07:16:35.059Z,7.70
2023-02-12T07:19:08.122Z,7.80
2023-02-12T07:21:39.792Z,7.70
2023-02-12T07:24:11.584Z,7.70
2023-02-12T07:26:43.258Z,7.80
2023-02-12T07:29:14.948Z,7.80
2023-02-12T07:31:46.669Z,7.80
2023-02-12T07:34:19.704Z,7.80
2023-02-12T07:36:51.394Z,8.00
2023-02-12T07:39:23.244Z,7.80
2023-02-12T07:41:55.922Z,7.90
2023-02-12T07:44:27.666Z,7.80
2023-02-12T07:46:59.327Z,7.80
2023-02-12T07:49:32.357Z,7.70
2023-02-12T07:52:04.024Z,7.60
2023-02-12T07:54:35.702Z,7.60
2023-02-12T07:57:07.411Z,7.60
2023-02-12T07:59:39.095Z,7.60
2023-02-12T08:02:10.801Z,7.60
2023-02-12T08:04:43.950Z,7.60
2023-02-12T08:07:15.674Z,7.60
2023-02-12T08:09:47.450Z,7.50
2023-02-12T08:12:19.235Z,7.50
2023-02-12T08:14:50.893Z,7.60
2023-02-12T08:17:22.566Z,7.70
2023-02-12T08:19:55.566Z,7.80
2023-02-12T08:22:27.233Z,7.80
2023-02-12T08:24:58.893Z,8.20
2023-02-12T08:30:02.655Z,8.20
2023-02-12T08:32:34.349Z,8.20
2023-02-12T08:35:08.227Z,8.20
2023-02-12T08:37:39.886Z,8.30
2023-02-12T08:40:12.130Z,8.40
2023-02-12T08:45:15.897Z,8.60
2023-02-12T08:47:48.114Z,8.60
2023-02-12T08:50:21.120Z,8.50
2023-02-12T08:52:52.795Z,8.60
2023-02-12T08:55:24.561Z,8.50
2023-02-12T08:57:56.228Z,8.50
2023-02-12T09:00:27.877Z,8.60
2023-02-12T09:02:59.557Z,8.60
2023-02-12T09:05:32.579Z,8.70
2023-02-12T09:08:04.565Z,8.70
2023-02-12T09:10:39.080Z,8.80
2023-02-12T09:13:11.454Z,8.90
2023-02-12T09:15:45.024Z,8.90
2023-02-12T09:18:16.850Z,9.00
2023-02-12T09:20:49.890Z,9.10
2023-02-12T09:23:21.556Z,9.10
2023-02-12T09:25:53.242Z,9.20
2023-02-12T09:28:25.155Z,9.20
2023-02-12T09:30:56.998Z,9.00
2023-02-12T09:33:28.720Z,9.00
2023-02-12T09:36:03.003Z,9.00
2023-02-12T09:38:34.775Z,9.00
2023-02-12T09:41:19.772Z,9.00
2023-02-12T09:43:53.273Z,9.20
2023-02-12T09:46:28.716Z,9.30
2023-02-12T09:49:07.377Z,9.30
2023-02-12T09:51:41.343Z,9.40
2023-02-12T09:54:14.243Z,9.50
2023-02-12T09:56:47.992Z,9.50
2023-02-12T09:59:24.231Z,9.60
2023-02-12T10:01:55.902Z,9.50
2023-02-12T10:04:27.694Z,9.60
2023-02-12T10:07:03.417Z,9.70
2023-02-12T10:09:51.122Z,9.80
2023-02-12T10:12:25.075Z,9.90
2023-02-12T10:15:07.540Z,10.00
2023-02-12T10:17:41.298Z,10.10
2023-02-12T10:20:27.507Z,10.20
2023-02-12T10:23:07.046Z,10.20
2023-02-12T10:25:44.333Z,10.20
2023-02-12T10:28:17.738Z,10.20
2023-02-12T10:30:51.354Z,10.30
2023-02-12T10:33:26.521Z,10.40
2023-02-12T10:36:02.284Z,10.40
2023-02-12T10:38:36.495Z,10.50
2023-02-12T10:41:08.494Z,10.60
2023-02-12T10:43:40.174Z,10.60
2023-02-12T10:46:13.564Z,10.60
2023-02-12T10:48:46.763Z,10.70
2023-02-12T10:51:29.900Z,10.80
2023-02-12T10:54:36.689Z,10.80
2023-02-12T10:57:19.803Z,10.80
2023-02-12T10:59:52.235Z,10.80
2023-02-12T11:02:25.908Z,10.90
2023-02-12T11:04:58.318Z,10.90
2023-02-12T11:07:31.109Z,10.90
2023-02-12T11:10:04.678Z,11.00
2023-02-12T11:12:39.118Z,11.10
2023-02-12T11:15:14.235Z,11.10
2023-02-12T11:17:54.420Z,11.10
2023-02-12T11:20:27.337Z,11.20
2023-02-12T11:22:59.673Z,11.20
2023-02-12T11:25:33.879Z,11.30
2023-02-12T11:28:13.779Z,11.20
2023-02-12T11:30:49.809Z,11.20
2023-02-12T11:33:26.745Z,11.20
2023-02-12T11:36:00.190Z,11.20
2023-02-12T11:38:33.766Z,11.30
2023-02-12T11:41:23.840Z,11.40
2023-02-12T11:43:55.541Z,11.40
2023-02-12T11:46:27.549Z,11.40
2023-02-12T11:48:59.223Z,11.30
2023-02-12T11:51:30.899Z,11.20
2023-02-12T11:54:03.466Z,11.30
2023-02-12T11:56:43.345Z,11.30
2023-02-12T11:59:32.601Z,11.40
2023-02-12T12:02:12.256Z,11.50
2023-02-12T12:04:43.917Z,11.50
2023-02-12T12:07:18.858Z,11.80
2023-02-12T12:09:55.116Z,11.80
2023-02-12T12:12:31.315Z,11.70
2023-02-12T12:15:05.569Z,11.70
2023-02-12T12:17:41.350Z,11.70
2023-02-12T12:20:15.756Z,11.70
2023-02-12T12:22:50.416Z,11.70
2023-02-12T12:25:23.976Z,11.60
2023-02-12T12:28:01.942Z,11.40
2023-02-12T12:30:51.471Z,11.40
2023-02-12T12:33:33.640Z,11.40
2023-02-12T12:36:41.284Z,11.40
2023-02-12T12:39:16.925Z,11.30
2023-02-12T12:42:07.340Z,11.40
2023-02-12T12:45:02.176Z,11.40
2023-02-12T12:47:37.487Z,11.50
2023-02-12T12:50:23.543Z,11.70
2023-02-12T12:53:18.895Z,11.70
2023-02-12T12:56:08.840Z,11.80
2023-02-12T12:58:48.103Z,11.90
2023-02-12T13:01:31.760Z,11.90
2023-02-12T13:04:38.568Z,11.80
2023-02-12T13:07:13.617Z,11.60
2023-02-12T13:10:07.497Z,11.80
2023-02-12T13:13:06.180Z,11.80
2023-02-12T13:15:39.341Z,11.90
2023-02-12T13:18:19.676Z,12.00
2023-02-12T13:20:55.352Z,12.00
2023-02-12T13:23:34.130Z,12.00
2023-02-12T13:26:10.819Z,12.10
2023-02-12T13:28:43.634Z,11.90
2023-02-12T13:31:32.613Z,11.90
2023-02-12T13:34:07.707Z,12.00
2023-02-12T13:36:39.461Z,11.90
2023-02-12T13:39:16.542Z,11.90
2023-02-12T13:41:52.518Z,12.00
2023-02-12T13:44:26.429Z,12.10
2023-02-12T13:47:01.558Z,12.00
2023-02-12T13:49:39.234Z,12.00
2023-02-12T13:54:49.750Z,11.70
2023-02-12T13:57:21.479Z,11.70
2023-02-12T13:59:53.329Z,11.70
2023-02-12T14:02:47.207Z,11.70
2023-02-12T14:05:28.904Z,11.80
2023-02-12T14:08:02.371Z,11.70
2023-02-12T14:10:36.046Z,11.70
2023-02-12T14:13:17.824Z,11.70
2023-02-12T14:15:50.452Z,11.70
2023-02-12T14:18:24.759Z,11.70
2023-02-12T14:21:42.062Z,11.70
2023-02-12T14:24:49.807Z,11.60
2023-02-12T14:27:43.192Z,11.60
2023-02-12T14:30:33.209Z,11.60
2023-02-12T14:33:24.012Z,11.50
2023-02-12T14:36:16.154Z,11.50
2023-02-12T14:38:58.278Z,11.40
2023-02-12T14:41:35.656Z,11.40
2023-02-12T14:44:40.684Z,11.40
2023-02-12T14:47:14.363Z,11.40
2023-02-12T14:49:46.805Z,11.40
2023-02-12T14:52:19.806Z,11.30
2023-02-12T14:54:52.451Z,11.30
2023-02-12T14:57:26.839Z,11.20
2023-02-12T14:59:59.469Z,11.20
2023-02-12T15:02:32.941Z,11.20
2023-02-12T15:05:07.646Z,11.20
2023-02-12T15:07:43.264Z,11.20
2023-02-12T15:10:16.198Z,11.20
2023-02-12T15:12:50.999Z,11.20
2023-02-12T15:15:25.301Z,11.20
2023-02-12T15:17:58.097Z,11.20
2023-02-12T15:20:33.099Z,11.20
2023-02-12T15:23:30.562Z,11.20
2023-02-12T15:26:02.901Z,11.10
2023-02-12T15:28:35.939Z,11.10
2023-02-12T15:31:07.939Z,11.10
2023-02-12T15:33:40.952Z,11.10
2023-02-12T15:36:15.636Z,11.10
2023-02-12T15:38:49.173Z,11.10
2023-02-12T15:41:25.395Z,11.00
2023-02-12T15:43:58.427Z,11.10
2023-02-12T15:46:30.264Z,11.10
2023-02-12T15:49:07.099Z,11.10
2023-02-12T15:51:39.060Z,11.00
2023-02-12T15:54:11.582Z,11.00
2023-02-12T15:56:43.274Z,11.00
2023-02-12T15:59:19.785Z,11.00
2023-02-12T16:01:56.497Z,11.00
2023-02-12T16:04:29.983Z,10.90
2023-02-12T16:07:01.669Z,10.90
2023-02-12T16:09:34.037Z,10.90
2023-02-12T16:12:07.417Z,10.90
2023-02-12T16:14:41.109Z,10.90
2023-02-12T16:17:21.179Z,10.90
2023-02-12T16:19:57.092Z,10.90
2023-02-12T16:22:30.938Z,10.80
2023-02-12T16:25:02.729Z,10.80
2023-02-12T16:27:34.429Z,10.80
2023-02-12T16:30:22.616Z,10.80
2023-02-12T16:32:54.550Z,10.80
2023-02-12T16:35:28.317Z,10.70
2023-02-12T16:38:05.251Z,10.70
2023-02-12T16:40:36.938Z,10.70
2023-02-12T16:43:25.672Z,10.70
2023-02-12T16:46:05.859Z,10.70
2023-02-12T16:48:38.416Z,10.70
2023-02-12T16:51:21.188Z,10.70
2023-02-12T16:53:52.961Z,10.60
2023-02-12T16:56:25.860Z,10.60
2023-02-12T16:58:58.171Z,10.60
2023-02-12T17:01:32.055Z,10.60
2023-02-12T17:04:05.738Z,10.60
2023-02-12T17:06:37.513Z,10.50
2023-02-12T17:09:09.684Z,10.50
2023-02-12T17:11:41.383Z,10.50
2023-02-12T17:14:14.747Z,10.50
2023-02-12T17:16:47.894Z,10.50
2023-02-12T17:19:19.588Z,10.50
2023-02-12T17:21:51.284Z,10.50
2023-02-12T17:24:24.202Z,10.50
2023-02-12T17:26:55.888Z,10.40
2023-02-12T17:29:27.672Z,10.40
2023-02-12T17:32:00.712Z,10.40
2023-02-12T17:34:46.638Z,10.40
2023-02-12T17:37:19.980Z,10.40
2023-02-12T17:39:51.726Z,10.40
2023-02-12T17:42:23.428Z,10.40
2023-02-12T17:44:55.109Z,10.40
2023-02-12T17:47:28.219Z,10.40
2023-02-12T17:49:59.866Z,10.30
2023-02-12T17:52:31.530Z,10.30
2023-02-12T17:55:03.513Z,10.30
2023-02-12T17:57:35.221Z,10.30
2023-02-12T18:00:07.991Z,10.30
2023-02-12T18:02:41.017Z,10.30
2023-02-12T18:05:12.747Z,10.20
2023-02-12T18:07:44.468Z,10.20
2023-02-12T18:10:16.214Z,10.20
2023-02-12T18:12:47.902Z,10.20
2023-02-12T18:15:19.687Z,10.20
2023-02-12T18:17:52.739Z,10.30
2023-02-12T18:20:24.434Z,10.30
2023-02-12T18:22:56.248Z,10.30
2023-02-12T18:25:27.916Z,10.30
2023-02-12T18:27:59.643Z,10.20
2023-02-12T18:30:31.546Z,10.30
2023-02-12T18:33:04.646Z,10.30
2023-02-12T18:35:36.302Z,10.20
2023-02-12T18:38:07.980Z,10.30
2023-02-12T18:40:40.047Z,10.30
2023-02-12T18:43:11.754Z,10.20
2023-02-12T18:45:43.440Z,10.20
2023-02-12T18:48:16.542Z,10.20
2023-02-12T18:50:48.198Z,10.30
2023-02-12T18:53:19.887Z,10.20
2023-02-12T18:55:51.564Z,10.20
2023-02-12T18:58:23.259Z,10.20
2023-02-12T19:00:55.162Z,10.20
2023-02-12T19:03:28.337Z,10.20
2023-02-12T19:06:02.805Z,10.20
2023-02-12T19:08:34.481Z,10.20
2023-02-12T19:11:06.200Z,10.20
2023-02-12T19:13:37.949Z,10.20
2023-02-12T19:16:11.454Z,10.20
2023-02-12T19:18:44.689Z,10.20
2023-02-12T19:21:16.818Z,10.10
2023-02-12T19:23:48.476Z,10.10
2023-02-12T19:26:20.162Z,10.10
2023-02-12T19:28:51.826Z,10.10
2023-02-12T19:31:24.814Z,10.10
2023-02-12T19:33:58.500Z,10.10
2023-02-12T19:36:30.958Z,10.00
2023-02-12T19:39:03.138Z,10.00
2023-02-12T19:41:34.887Z,10.00
2023-02-12T19:44:08.649Z,10.00
2023-02-12T19:46:40.455Z,9.90
2023-02-12T19:49:14.830Z,9.90
2023-02-12T19:51:46.529Z,9.90
2023-02-12T19:54:18.871Z,9.90
2023-02-12T19:56:50.891Z,9.90
2023-02-12T19:59:23.878Z,9.90
2023-02-12T20:01:55.578Z,9.90
2023-02-12T20:04:28.680Z,9.90
2023-02-12T20:07:00.362Z,9.90
2023-02-12T20:09:32.009Z,9.90
2023-02-12T20:12:03.955Z,9.90
2023-02-12T20:14:35.616Z,9.80
2023-02-12T20:17:07.286Z,9.80
2023-02-12T20:19:40.300Z,9.80
2023-02-12T20:22:11.971Z,9.80
2023-02-12T20:24:43.625Z,9.80
2023-02-12T20:27:15.292Z,9.80
2023-02-12T20:29:46.949Z,9.80
2023-02-12T20:32:18.627Z,9.70
2023-02-12T20:34:52.132Z,9.70
2023-02-12T20:37:23.801Z,9.70
2023-02-12T20:39:55.461Z,9.70
2023-02-12T20:42:27.127Z,9.70
2023-02-12T20:44:58.797Z,9.70
2023-02-12T20:47:30.483Z,9.70
2023-02-12T20:50:03.936Z,9.70
2023-02-12T20:52:35.741Z,9.70
2023-02-12T20:55:07.656Z,9.70
2023-02-12T20:57:39.339Z,9.70
2023-02-12T21:00:12.377Z,9.70
2023-02-12T21:02:44.103Z,9.60
2023-02-12T21:05:17.214Z,9.70
2023-02-12T21:07:49.904Z,9.70
2023-02-12T21:10:21.570Z,9.60
2023-02-12T21:12:53.251Z,9.60
2023-02-12T21:15:25.032Z,9.60
2023-02-12T21:17:56.783Z,9.60
2023-02-12T21:20:30.056Z,9.60
2023-02-12T21:23:01.836Z,9.60
2023-02-12T21:25:33.657Z,9.60
2023-02-12T21:28:05.521Z,9.60
2023-02-12T21:30:37.412Z,9.60
2023-02-12T21:33:09.350Z,9.60
2023-02-12T21:35:42.457Z,9.50
2023-02-12T21:38:14.284Z,9.60
2023-02-12T21:40:46.138Z,9.50
2023-02-12T21:43:17.992Z,9.50
2023-02-12T21:45:50.366Z,9.50
2023-02-12T21:48:22.272Z,9.50
2023-02-12T21:50:55.860Z,9.50
2023-02-12T21:53:28.091Z,9.50
2023-02-12T21:56:02.060Z,9.50
2023-02-12T21:58:33.820Z,9.50
2023-02-12T22:01:06.771Z,9.40
2023-02-12T22:03:38.516Z,9.40
2023-02-12T22:06:12.089Z,9.40
2023-02-12T22:08:43.726Z,9.40
2023-02-12T22:11:15.682Z,9.40
2023-02-12T22:13:47.384Z,9.40
2023-02-12T22:16:20.241Z,9.40
2023-02-12T22:18:52.617Z,9.40
2023-02-12T22:21:26.495Z,9.40
2023-02-12T22:24:00.317Z,9.40
2023-02-12T22:26:32.033Z,9.40
2023-02-12T22:29:04.713Z,9.30
2023-02-12T22:31:38.338Z,9.40
2023-02-12T22:34:11.071Z,9.30
2023-02-12T22:36:44.106Z,9.30
2023-02-12T22:39:15.800Z,9.30
2023-02-12T22:41:47.465Z,9.30
2023-02-12T22:44:21.227Z,9.30
2023-02-12T22:46:53.092Z,9.30
2023-02-12T22:49:24.731Z,9.30
2023-02-12T22:51:57.720Z,9.30
2023-02-12T22:54:29.347Z,9.30
2023-02-12T22:57:01.019Z,9.30
2023-02-12T22:59:32.659Z,9.30
